createdAt,value
2023-10-03T00:01:52.827Z,17.34
2023-10-03T00:04:20.560Z,17.70
2023-10-03T00:06:47.876Z,17.49
2023-10-03T00:09:14.990Z,17.58
2023-10-03T00:11:42.227Z,17.26
2023-10-03T00:14:09.185Z,17.84
2023-10-03T00:16:36.772Z,17.43
2023-10-03T00:19:04.371Z,17.85
2023-10-03T00:21:52.084Z,17.64
2023-10-03T00:24:53.022Z,17.79
2023-10-03T00:27:47.935Z,17.73
2023-10-03T00:30:30.389Z,17.87
2023-10-03T00:33:20.078Z,17.25
2023-10-03T00:36:00.524Z,17.40
2023-10-03T00:38:27.554Z,17.40
2023-10-03T00:40:57.344Z,16.74
2023-10-03T00:43:25.978Z,17.07
2023-10-03T00:45:53.002Z,17.33
2023-10-03T00:48:22.759Z,16.91
2023-10-03T00:50:50.313Z,16.98
2023-10-03T00:53:18.074Z,16.82
2023-10-03T00:55:45.466Z,17.01
2023-10-03T00:58:12.668Z,17.06
2023-10-03T01:00:41.834Z,17.20
2023-10-03T01:03:39.172Z,17.12
2023-10-03T01:06:13.741Z,17.07
2023-10-03T01:08:42.389Z,17.15
2023-10-03T01:11:17.603Z,16.78
2023-10-03T01:14:00.016Z,16.95
2023-10-03T01:16:33.181Z,16.96
2023-10-03T01:19:15.544Z,17.01
2023-10-03T01:22:07.063Z,16.92
2023-10-03T01:25:08.412Z,16.92
2023-10-03T01:28:09.054Z,16.94
2023-10-03T01:30:52.522Z,16.72
2023-10-03T01:33:40.140Z,16.75
2023-10-03T01:36:21.159Z,17.01
2023-10-03T01:38:48.164Z,16.93
2023-10-03T01:41:15.266Z,16.64
2023-10-03T01:43:44.663Z,16.61
2023-10-03T01:46:13.767Z,16.77
2023-10-03T01:48:42.999Z,16.95
2023-10-03T01:51:10.367Z,17.00
2023-10-03T01:53:57.167Z,16.93
2023-10-03T01:56:37.773Z,16.39
2023-10-03T01:59:06.024Z,16.52
2023-10-03T02:01:36.451Z,16.71
2023-10-03T02:04:03.900Z,16.80
2023-10-03T02:06:31.137Z,16.68
2023-10-03T02:08:59.537Z,16.32
2023-10-03T02:11:28.531Z,16.35
2023-10-03T02:13:55.970Z,16.79
2023-10-03T02:16:23.765Z,16.58
2023-10-03T02:18:51.001Z,16.50
2023-10-03T02:21:18.533Z,16.43
2023-10-03T02:24:06.107Z,16.60
2023-10-03T02:27:09.166Z,16.45
2023-10-03T02:30:00.673Z,16.64
2023-10-03T02:32:49.176Z,16.53
2023-10-03T02:35:46.748Z,16.56
2023-10-03T02:38:27.020Z,16.12
2023-10-03T02:41:01.659Z,16.21
2023-10-03T02:43:35.617Z,16.42
2023-10-03T02:46:08.407Z,16.22
2023-10-03T02:48:37.257Z,15.61
2023-10-03T02:51:07.139Z,16.10
2023-10-03T02:53:35.482Z,15.76
2023-10-03T02:56:05.327Z,15.99
2023-10-03T02:58:32.627Z,16.14
2023-10-03T03:00:59.709Z,15.56
2023-10-03T03:03:32.251Z,15.80
2023-10-03T03:06:04.099Z,15.68
2023-10-03T03:08:32.418Z,15.91
2023-10-03T03:11:01.465Z,15.87
2023-10-03T03:13:34.134Z,15.54
2023-10-03T03:16:02.343Z,15.99
2023-10-03T03:18:32.733Z,15.66
2023-10-03T03:21:00.558Z,15.85
2023-10-03T03:23:45.248Z,15.76
2023-10-03T03:26:47.226Z,15.75
2023-10-03T03:29:59.215Z,15.86
2023-10-03T03:32:46.251Z,15.94
2023-10-03T03:35:50.750Z,15.71
2023-10-03T03:38:21.914Z,15.47
2023-10-03T03:40:56.700Z,15.98
2023-10-03T03:43:23.986Z,16.07
2023-10-03T03:45:52.966Z,15.77
2023-10-03T03:48:24.389Z,15.61
2023-10-03T03:50:51.734Z,15.84
2023-10-03T03:53:20.486Z,15.25
2023-10-03T03:55:47.716Z,15.10
2023-10-03T03:58:19.655Z,15.38
2023-10-03T04:00:52.558Z,15.34
2023-10-03T04:03:25.454Z,15.75
2023-10-03T04:05:52.794Z,15.24
2023-10-03T04:08:19.838Z,15.42
2023-10-03T04:10:47.266Z,15.34
2023-10-03T04:13:16.913Z,15.13
2023-10-03T04:15:47.077Z,15.64
2023-10-03T04:18:17.414Z,15.70
2023-10-03T04:20:47.937Z,15.50
2023-10-03T04:23:35.200Z,15.49
2023-10-03T04:26:36.338Z,15.44
2023-10-03T04:29:37.244Z,15.06
2023-10-03T04:32:38.321Z,15.44
2023-10-03T04:35:39.309Z,15.28
2023-10-03T04:38:19.142Z,15.37
2023-10-03T04:40:48.818Z,14.81
2023-10-03T04:43:16.200Z,14.84
2023-10-03T04:45:44.983Z,14.85
2023-10-03T04:48:12.377Z,15.03
2023-10-03T04:50:41.252Z,15.15
2023-10-03T04:53:15.588Z,15.40
2023-10-03T04:55:49.518Z,15.37
2023-10-03T04:58:16.929Z,15.36
2023-10-03T05:00:44.082Z,15.31
2023-10-03T05:03:11.321Z,15.10
2023-10-03T05:05:39.297Z,15.21
2023-10-03T05:08:08.900Z,15.26
2023-10-03T05:10:38.131Z,15.19
2023-10-03T05:13:27.214Z,14.97
2023-10-03T05:16:09.457Z,14.73
2023-10-03T05:18:37.056Z,14.84
2023-10-03T05:21:05.068Z,15.04
2023-10-03T05:23:52.282Z,14.78
2023-10-03T05:26:53.243Z,15.25
2023-10-03T05:29:54.279Z,15.61
2023-10-03T05:32:42.283Z,14.96
2023-10-03T05:35:43.316Z,15.27
2023-10-03T05:38:16.812Z,15.75
2023-10-03T05:40:46.160Z,15.60
2023-10-03T05:43:13.173Z,15.94
2023-10-03T05:45:41.058Z,15.68
2023-10-03T05:48:08.289Z,15.82
2023-10-03T05:50:56.279Z,16.04
2023-10-03T05:53:57.552Z,16.53
2023-10-03T05:56:38.706Z,16.45
2023-10-03T05:59:05.886Z,16.64
2023-10-03T06:01:32.888Z,16.82
2023-10-03T06:04:01.757Z,16.94
2023-10-03T06:06:31.949Z,17.69
2023-10-03T06:09:12.239Z,17.22
2023-10-03T06:12:14.356Z,17.65
2023-10-03T06:15:15.310Z,17.85
2023-10-03T06:17:55.995Z,17.23
2023-10-03T06:20:25.809Z,17.32
2023-10-03T06:23:13.243Z,17.58
2023-10-03T06:26:14.558Z,17.77
2023-10-03T06:29:15.628Z,17.75
2023-10-03T06:32:16.277Z,17.82
2023-10-03T06:35:17.275Z,17.75
2023-10-03T06:37:58.905Z,18.19
2023-10-03T06:40:26.216Z,18.94
2023-10-03T06:42:53.308Z,18.80
2023-10-03T06:45:22.497Z,18.86
2023-10-03T06:47:49.637Z,19.28
2023-10-03T06:50:17.041Z,19.10
2023-10-03T06:52:44.468Z,19.63
2023-10-03T06:55:16.566Z,19.80
2023-10-03T06:57:43.594Z,19.93
2023-10-03T07:00:14.637Z,19.73
2023-10-03T07:02:42.373Z,19.87
2023-10-03T07:05:09.769Z,20.01
2023-10-03T07:07:36.857Z,20.19
2023-10-03T07:10:24.292Z,19.80
2023-10-03T07:13:26.192Z,20.03
2023-10-03T07:16:14.345Z,19.39
2023-10-03T07:18:43.277Z,18.83
2023-10-03T07:21:11.308Z,19.32
2023-10-03T07:24:01.401Z,20.16
2023-10-03T07:26:42.708Z,19.39
2023-10-03T07:29:09.735Z,19.67
2023-10-03T07:31:38.271Z,20.07
2023-10-03T07:34:05.625Z,19.54
2023-10-03T07:36:32.701Z,19.28
2023-10-03T07:39:21.394Z,19.09
2023-10-03T07:42:02.942Z,19.62
2023-10-03T07:44:30.055Z,19.64
2023-10-03T07:46:57.343Z,20.11
2023-10-03T07:49:24.487Z,20.04
2023-10-03T07:52:12.474Z,20.33
2023-10-03T07:54:56.530Z,20.23
2023-10-03T07:57:25.154Z,20.21
2023-10-03T07:59:52.414Z,21.49
2023-10-03T08:02:19.591Z,20.49
2023-10-03T08:04:48.232Z,20.09
2023-10-03T08:07:22.765Z,19.97
2023-10-03T08:10:10.334Z,19.95
2023-10-03T08:13:24.316Z,20.73
2023-10-03T08:16:05.182Z,21.64
2023-10-03T08:18:37.568Z,22.12
2023-10-03T08:21:05.236Z,20.84
2023-10-03T08:23:59.512Z,20.76
2023-10-03T08:26:39.951Z,20.51
2023-10-03T08:29:07.589Z,21.05
2023-10-03T08:31:40.104Z,20.54
2023-10-03T08:34:12.105Z,20.76
2023-10-03T08:36:39.310Z,20.66
2023-10-03T08:39:26.437Z,21.10
2023-10-03T08:42:14.664Z,21.47
2023-10-03T08:45:00.645Z,21.24
2023-10-03T08:47:39.963Z,21.05
2023-10-03T08:50:12.642Z,21.39
2023-10-03T08:52:48.931Z,21.47
2023-10-03T08:55:21.732Z,21.89
2023-10-03T08:57:51.897Z,21.71
2023-10-03T09:00:26.760Z,21.80
2023-10-03T09:03:10.746Z,22.05
2023-10-03T09:05:42.907Z,22.04
2023-10-03T09:08:15.091Z,21.47
2023-10-03T09:11:03.422Z,22.05
2023-10-03T09:13:47.305Z,22.13
2023-10-03T09:16:16.414Z,22.14
2023-10-03T09:18:43.518Z,22.11
2023-10-03T09:21:31.802Z,22.02
2023-10-03T09:24:35.359Z,22.44
2023-10-03T09:27:19.279Z,22.05
2023-10-03T09:29:51.093Z,22.00
2023-10-03T09:32:24.685Z,22.10
2023-10-03T09:34:59.233Z,22.65
2023-10-03T09:37:51.505Z,22.78
2023-10-03T09:41:06.493Z,22.80
2023-10-03T09:44:08.439Z,23.16
2023-10-03T09:46:54.421Z,22.99
2023-10-03T09:49:27.658Z,23.03
2023-10-03T09:51:55.147Z,22.79
2023-10-03T09:54:32.091Z,22.72
2023-10-03T09:57:02.171Z,22.95
2023-10-03T09:59:34.142Z,23.75
2023-10-03T10:02:01.765Z,23.83
2023-10-03T10:07:36.039Z,24.02
2023-10-03T10:10:27.582Z,23.98
2023-10-03T10:13:30.392Z,23.37
2023-10-03T10:16:08.913Z,23.70
2023-10-03T10:18:45.963Z,24.97
2023-10-03T10:21:45.518Z,24.36
2023-10-03T10:24:48.441Z,24.02
2023-10-03T10:27:31.029Z,24.12
2023-10-03T10:30:00.606Z,24.83
2023-10-03T10:32:29.877Z,24.06
2023-10-03T10:35:03.228Z,24.38
2023-10-03T10:38:03.381Z,24.18
2023-10-03T10:41:25.453Z,25.05
2023-10-03T10:44:10.362Z,25.69
2023-10-03T10:46:41.266Z,25.63
2023-10-03T10:49:31.952Z,25.32
2023-10-03T10:52:01.337Z,24.65
2023-10-03T10:54:29.367Z,25.69
2023-10-03T10:57:01.102Z,25.96
2023-10-03T10:59:29.360Z,26.85
2023-10-03T11:01:59.081Z,26.88
2023-10-03T11:04:46.511Z,26.82
2023-10-03T11:07:50.448Z,26.41
2023-10-03T11:11:11.449Z,26.36
2023-10-03T11:14:12.780Z,26.75
2023-10-03T11:17:13.486Z,25.93
2023-10-03T11:20:10.078Z,26.12
2023-10-03T11:22:57.437Z,26.61
2023-10-03T11:25:41.802Z,27.13
2023-10-03T11:28:09.536Z,26.33
2023-10-03T11:30:38.046Z,26.89
2023-10-03T11:33:25.609Z,27.20
2023-10-03T11:36:27.430Z,26.16
2023-10-03T11:39:34.437Z,25.69
2023-10-03T11:42:28.604Z,26.64
2023-10-03T11:45:00.597Z,26.34
2023-10-03T11:47:48.650Z,25.77
2023-10-03T11:50:41.002Z,25.82
2023-10-03T11:53:29.479Z,25.95
2023-10-03T11:56:30.460Z,25.59
2023-10-03T11:59:31.497Z,25.67
2023-10-03T12:02:12.709Z,25.66
2023-10-03T12:04:39.726Z,25.75
2023-10-03T12:07:29.290Z,26.02
2023-10-03T12:10:38.469Z,26.00
2023-10-03T12:13:16.873Z,26.60
2023-10-03T12:15:44.668Z,26.41
2023-10-03T12:18:12.733Z,27.11
2023-10-03T12:20:40.317Z,26.62
2023-10-03T12:23:27.569Z,26.68
2023-10-03T12:26:28.592Z,26.91
2023-10-03T12:29:29.682Z,26.40
2023-10-03T12:32:10.128Z,26.19
2023-10-03T12:34:57.515Z,26.56
2023-10-03T12:37:39.094Z,26.46
2023-10-03T12:40:26.499Z,26.60
2023-10-03T12:43:08.458Z,26.28
2023-10-03T12:45:35.505Z,26.72
2023-10-03T12:48:22.875Z,26.68
2023-10-03T12:51:23.512Z,26.65
2023-10-03T12:54:24.556Z,27.30
2023-10-03T12:57:25.513Z,26.30
2023-10-03T13:00:07.990Z,26.48
2023-10-03T13:02:55.693Z,26.67
2023-10-03T13:05:56.618Z,26.80
2023-10-03T13:08:59.724Z,26.53
2023-10-03T13:12:00.633Z,26.48
2023-10-03T13:15:01.618Z,26.85
2023-10-03T13:17:43.364Z,26.42
2023-10-03T13:20:14.471Z,26.52
2023-10-03T13:23:02.568Z,26.59
2023-10-03T13:25:46.417Z,26.31
2023-10-03T13:28:14.585Z,26.42
2023-10-03T13:30:42.238Z,26.76
2023-10-03T13:33:29.988Z,26.95
2023-10-03T13:36:16.196Z,26.95
2023-10-03T13:39:03.811Z,26.82
2023-10-03T13:42:04.658Z,26.98
2023-10-03T13:45:05.582Z,26.36
2023-10-03T13:48:07.674Z,27.01
2023-10-03T13:51:02.688Z,26.84
2023-10-03T13:53:57.606Z,26.97
2023-10-03T13:56:38.239Z,27.01
2023-10-03T13:59:06.633Z,26.58
2023-10-03T14:01:33.851Z,26.51
2023-10-03T14:04:01.029Z,27.03
2023-10-03T14:06:31.444Z,26.78
2023-10-03T14:08:58.785Z,26.83
2023-10-03T14:11:45.593Z,27.02
2023-10-03T14:14:46.741Z,26.76
2023-10-03T14:17:27.379Z,26.75
2023-10-03T14:19:55.264Z,26.73
2023-10-03T14:22:42.771Z,26.96
2023-10-03T14:25:41.110Z,26.89
2023-10-03T14:28:10.049Z,26.69
2023-10-03T14:30:37.013Z,26.90
2023-10-03T14:33:24.737Z,26.89
2023-10-03T14:36:16.327Z,26.91
2023-10-03T14:38:43.515Z,27.05
2023-10-03T14:41:13.032Z,27.00
2023-10-03T14:43:41.501Z,26.66
2023-10-03T14:46:09.068Z,26.67
2023-10-03T14:48:36.183Z,26.52
2023-10-03T14:51:03.426Z,26.88
2023-10-03T14:53:31.047Z,26.66
2023-10-03T14:56:19.589Z,26.80
2023-10-03T14:59:13.944Z,26.67
2023-10-03T15:01:57.148Z,26.84
2023-10-03T15:04:24.394Z,26.61
2023-10-03T15:07:11.706Z,26.82
2023-10-03T15:09:52.878Z,27.06
2023-10-03T15:12:39.619Z,26.96
2023-10-03T15:15:43.636Z,26.82
2023-10-03T15:18:45.748Z,26.54
2023-10-03T15:21:57.642Z,26.35
2023-10-03T15:24:58.853Z,26.89
2023-10-03T15:27:39.369Z,26.61
2023-10-03T15:30:10.107Z,26.83
2023-10-03T15:32:57.683Z,26.60
2023-10-03T15:35:58.758Z,26.76
2023-10-03T15:38:59.720Z,26.33
2023-10-03T15:41:40.414Z,26.50
2023-10-03T15:44:09.634Z,26.41
2023-10-03T15:46:36.690Z,26.31
2023-10-03T15:49:04.122Z,26.64
2023-10-03T15:51:31.243Z,26.51
2023-10-03T15:53:58.307Z,26.55
2023-10-03T15:56:45.916Z,26.21
2023-10-03T15:59:45.834Z,26.36
2023-10-03T16:02:13.133Z,26.01
2023-10-03T16:04:40.264Z,26.14
2023-10-03T16:07:07.354Z,26.08
2023-10-03T16:09:34.621Z,25.89
2023-10-03T16:12:21.683Z,25.82
2023-10-03T16:15:22.756Z,25.91
2023-10-03T16:18:23.820Z,25.95
2023-10-03T16:21:24.705Z,25.57
2023-10-03T16:24:25.727Z,25.54
2023-10-03T16:27:29.167Z,25.51
2023-10-03T16:30:12.123Z,25.63
2023-10-03T16:32:59.791Z,25.56
2023-10-03T16:36:00.809Z,25.16
2023-10-03T16:39:03.074Z,25.11
2023-10-03T16:41:44.426Z,24.97
2023-10-03T16:44:11.800Z,24.87
2023-10-03T16:46:38.919Z,24.73
2023-10-03T16:49:07.223Z,24.29
2023-10-03T16:51:35.141Z,24.68
2023-10-03T16:54:04.331Z,24.36
2023-10-03T16:56:32.245Z,24.10
2023-10-03T16:58:59.727Z,23.77
2023-10-03T17:01:26.914Z,23.56
2023-10-03T17:03:56.543Z,23.35
2023-10-03T17:06:45.812Z,23.26
2023-10-03T17:09:31.853Z,23.52
2023-10-03T17:12:19.726Z,23.07
2023-10-03T17:15:21.768Z,23.11
2023-10-03T17:18:22.777Z,22.60
2023-10-03T17:21:25.785Z,22.71
2023-10-03T17:24:26.784Z,22.40
2023-10-03T17:27:27.803Z,22.25
2023-10-03T17:30:28.873Z,22.30
2023-10-03T17:33:29.867Z,22.13
2023-10-03T17:36:10.444Z,22.43
2023-10-03T17:38:37.504Z,22.32
2023-10-03T17:41:06.756Z,21.80
2023-10-03T17:43:34.329Z,21.70
2023-10-03T17:46:02.565Z,21.90
2023-10-03T17:48:29.656Z,21.41
2023-10-03T17:50:56.828Z,21.84
2023-10-03T17:53:23.880Z,21.51
2023-10-03T17:55:52.873Z,21.91
2023-10-03T17:58:20.056Z,21.75
2023-10-03T18:00:47.745Z,21.45
2023-10-03T18:03:16.375Z,21.69
2023-10-03T18:05:43.793Z,21.43
2023-10-03T18:08:10.905Z,20.88
2023-10-03T18:10:37.994Z,21.16
2023-10-03T18:13:06.561Z,21.39
2023-10-03T18:15:35.176Z,21.32
2023-10-03T18:18:02.884Z,21.13
2023-10-03T18:20:30.295Z,21.26
2023-10-03T18:23:17.752Z,21.09
2023-10-03T18:26:00.087Z,21.05
2023-10-03T18:29:00.917Z,21.34
2023-10-03T18:32:02.819Z,21.25
2023-10-03T18:34:44.526Z,21.51
2023-10-03T18:37:11.528Z,21.23
2023-10-03T18:39:38.608Z,21.16
2023-10-03T18:42:05.828Z,21.27
2023-10-03T18:44:32.932Z,21.57
2023-10-03T18:47:20.023Z,21.23
2023-10-03T18:50:08.299Z,21.55
2023-10-03T18:52:36.981Z,21.43
2023-10-03T18:55:05.882Z,21.37
2023-10-03T18:57:33.194Z,21.47
2023-10-03T19:00:00.525Z,21.77
2023-10-03T19:02:27.555Z,21.64
2023-10-03T19:04:54.821Z,21.46
2023-10-03T19:07:21.849Z,21.50
2023-10-03T19:09:51.947Z,21.20
2023-10-03T19:12:39.772Z,21.29
2023-10-03T19:15:28.840Z,21.14
2023-10-03T19:17:55.967Z,20.77
2023-10-03T19:20:23.012Z,20.94
2023-10-03T19:23:10.087Z,20.84
2023-10-03T19:25:50.373Z,20.77
2023-10-03T19:28:17.398Z,20.68
2023-10-03T19:30:44.882Z,20.47
2023-10-03T19:33:12.065Z,20.33
2023-10-03T19:35:39.294Z,20.58
2023-10-03T19:38:06.740Z,20.35
2023-10-03T19:40:34.805Z,19.96
2023-10-03T19:43:01.839Z,20.15
2023-10-03T19:45:32.319Z,20.25
2023-10-03T19:48:25.954Z,20.64
2023-10-03T19:51:09.629Z,20.45
2023-10-03T19:53:37.623Z,20.44
2023-10-03T19:56:09.805Z,19.83
2023-10-03T19:58:37.297Z,20.46
2023-10-03T20:01:08.742Z,20.49
2023-10-03T20:03:37.154Z,20.36
2023-10-03T20:06:09.557Z,20.46
2023-10-03T20:08:36.890Z,20.43
2023-10-03T20:11:04.108Z,20.32
2023-10-03T20:13:51.076Z,20.11
2023-10-03T20:16:31.634Z,20.32
2023-10-03T20:18:58.728Z,20.61
2023-10-03T20:21:45.825Z,20.64
2023-10-03T20:24:46.858Z,20.52
2023-10-03T20:27:48.876Z,20.25
2023-10-03T20:30:29.618Z,20.18
2023-10-03T20:32:57.158Z,19.66
2023-10-03T20:35:24.294Z,20.34
2023-10-03T20:37:52.460Z,19.83
2023-10-03T20:40:19.528Z,20.10
2023-10-03T20:42:47.327Z,20.30
2023-10-03T20:45:14.403Z,20.10
2023-10-03T20:50:56.557Z,20.08
2023-10-03T20:53:24.608Z,19.86
2023-10-03T20:55:51.821Z,20.41
2023-10-03T20:58:19.165Z,20.25
2023-10-03T21:00:46.170Z,20.30
2023-10-03T21:03:13.166Z,20.21
2023-10-03T21:05:41.245Z,20.37
2023-10-03T21:08:10.152Z,19.88
2023-10-03T21:10:42.014Z,19.91
2023-10-03T21:13:09.115Z,20.21
2023-10-03T21:15:37.084Z,19.88
2023-10-03T21:18:04.569Z,19.84
2023-10-03T21:20:31.745Z,20.03
2023-10-03T21:23:19.237Z,20.06
2023-10-03T21:26:09.804Z,19.99
2023-10-03T21:28:37.173Z,19.71
2023-10-03T21:31:07.600Z,19.80
2023-10-03T21:33:35.097Z,19.74
2023-10-03T21:36:03.356Z,19.99
2023-10-03T21:38:30.970Z,20.24
2023-10-03T21:40:58.583Z,20.03
2023-10-03T21:43:25.712Z,19.70
2023-10-03T21:46:14.893Z,20.15
2023-10-03T21:49:15.932Z,20.14
2023-10-03T21:51:56.499Z,19.88
2023-10-03T21:54:23.675Z,20.08
2023-10-03T21:56:50.839Z,20.10
2023-10-03T21:59:17.950Z,19.87
2023-10-03T22:01:44.881Z,20.05
2023-10-03T22:04:13.284Z,19.65
2023-10-03T22:06:40.301Z,19.45
2023-10-03T22:09:11.071Z,19.31
2023-10-03T22:11:57.925Z,19.57
2023-10-03T22:14:58.963Z,19.36
2023-10-03T22:17:39.467Z,19.07
2023-10-03T22:20:07.114Z,18.90
2023-10-03T22:22:54.892Z,18.91
2023-10-03T22:25:40.623Z,18.84
2023-10-03T22:28:07.644Z,19.17
2023-10-03T22:30:35.003Z,19.24
2023-10-03T22:33:02.532Z,18.96
2023-10-03T22:35:29.802Z,18.69
2023-10-03T22:38:07.772Z,19.21
2023-10-03T22:40:39.643Z,19.18
2023-10-03T22:43:08.346Z,18.79
2023-10-03T22:45:36.053Z,18.90
2023-10-03T22:48:22.980Z,19.27
2023-10-03T22:51:03.804Z,19.34
2023-10-03T22:53:30.820Z,19.03
2023-10-03T22:55:57.833Z,19.13
2023-10-03T22:58:25.186Z,18.84
2023-10-03T23:00:54.126Z,18.59
2023-10-03T23:03:21.719Z,18.65
2023-10-03T23:05:48.921Z,18.97
2023-10-03T23:08:17.234Z,18.79
2023-10-03T23:10:45.737Z,19.06
2023-10-03T23:13:12.702Z,18.48
2023-10-03T23:15:42.810Z,19.12
2023-10-03T23:18:09.852Z,18.94
2023-10-03T23:20:37.017Z,18.92
2023-10-03T23:23:23.954Z,19.17
2023-10-03T23:26:05.179Z,19.09
2023-10-03T23:28:32.238Z,18.74
2023-10-03T23:30:59.200Z,18.92
2023-10-03T23:33:26.585Z,18.81
2023-10-03T23:35:53.565Z,18.81
2023-10-03T23:38:23.987Z,18.47
2023-10-03T23:41:10.944Z,18.33
2023-10-03T23:44:13.969Z,17.97
2023-10-03T23:47:15.309Z,18.33
2023-10-03T23:50:07.793Z,18.39
2023-10-03T23:52:35.207Z,18.05
2023-10-03T23:55:08.756Z,17.93
2023-10-03T23:57:38.851Z,18.10
